CheckWX is a tool to help pilots better visualize weather data.  It is not intended as a substitute for an official pre-flight weather briefing.

06:59:22 UTC

SBDN TAF
Presidente Prudente Airport
Presidente Prudente, Brazil
TAF SBDN 190300Z 1906/1918 11005KT CAVOK TN17/1909Z TX31/1918Z BECMG 1914/1916 28007KT RMK PER

Jun-19@
06:00 UTC

Jun-19 @ 06:00 UTC

Jun-19@
14:00 UTC

Jun-19 @ 14:00 UTC

TAF SBDN 190300Z 1906/1918 11005KT CAVOK TN17/1909Z TX31/1918Z
Wind
  • 110° at 5 KTS
Cloud Levels
  • No significant clouds

Jun-19@
14:00 UTC

Jun-19 @ 14:00 UTC

Jun-19@
18:00 UTC

Jun-19 @ 18:00 UTC

BECMG 1914/1916 28007KT RMK PER

Becoming

Becoming Conditions expected by Wed, Jun 19, 2019 @ 16:00 UTC

Wind
  • 280° at 7 KTS
Cloud Levels
  • No significant clouds